Terminal Aerodrome Forecast
Issued by NWS

Home | Current Version | Previous Version | Text Only | Print | Product List | Glossary On
Versions: 1 2 3 4 5 6 7 8 9 10 11 12 13 14
000
FTUS42 KMLB 031122
TAFISM
TAF
KISM 031122Z 0312/0412 00000KT P6SM FEW050
     FM031400 07009KT P6SM FEW040
     FM031900 08013G20KT P6SM SCT060
     FM040000 09010KT P6SM FEW050
      AMD NOT SKED TIL 031200=

USA.gov is the U.S. government's official web portal to all federal, state and local government web resources and services.